createdAt,value
2023-10-26T00:01:26.426Z,5.00
2023-10-26T00:03:53.712Z,5.30
2023-10-26T00:06:21.294Z,5.15
2023-10-26T00:08:48.621Z,5.25
2023-10-26T00:11:15.904Z,5.43
2023-10-26T00:13:43.066Z,4.63
2023-10-26T00:16:10.187Z,4.55
2023-10-26T00:18:37.188Z,4.95
2023-10-26T00:21:04.525Z,4.40
2023-10-26T00:23:31.844Z,4.82
2023-10-26T00:25:58.855Z,3.80
2023-10-26T00:28:26.145Z,4.18
2023-10-26T00:30:53.063Z,4.15
2023-10-26T00:33:20.076Z,4.00
2023-10-26T00:35:47.538Z,3.70
2023-10-26T00:38:14.738Z,4.70
2023-10-26T00:40:42.010Z,3.70
2023-10-26T00:43:21.411Z,3.65
2023-10-26T00:45:52.524Z,3.92
2023-10-26T00:48:21.093Z,4.07
2023-10-26T00:50:49.775Z,4.23
2023-10-26T00:53:19.024Z,3.60
2023-10-26T00:55:50.542Z,3.92
2023-10-26T00:58:19.407Z,3.53
2023-10-26T01:00:46.500Z,3.22
2023-10-26T01:03:14.888Z,3.73
2023-10-26T01:05:42.450Z,3.28
2023-10-26T01:08:09.593Z,3.20
2023-10-26T01:10:36.847Z,3.17
2023-10-26T01:13:05.639Z,3.22
2023-10-26T01:15:32.601Z,3.37
2023-10-26T01:18:00.053Z,3.37
2023-10-26T01:20:27.159Z,2.97
2023-10-26T01:22:54.487Z,2.97
2023-10-26T01:25:21.736Z,3.10
2023-10-26T01:27:49.107Z,2.80
2023-10-26T01:30:18.296Z,3.17
2023-10-26T01:32:45.630Z,3.20
2023-10-26T01:35:12.628Z,2.83
2023-10-26T01:37:40.504Z,2.50
2023-10-26T01:40:09.666Z,2.93
2023-10-26T01:42:36.689Z,2.67
2023-10-26T01:45:04.049Z,2.87
2023-10-26T01:47:30.961Z,2.80
2023-10-26T01:49:58.218Z,3.03
2023-10-26T01:52:25.563Z,2.80
2023-10-26T01:54:52.517Z,2.70
2023-10-26T01:57:19.666Z,2.70
2023-10-26T01:59:46.894Z,2.70
2023-10-26T02:02:14.037Z,2.55
2023-10-26T02:04:41.225Z,2.67
2023-10-26T02:07:08.243Z,2.62
2023-10-26T02:09:35.480Z,2.40
2023-10-26T02:12:02.785Z,2.35
2023-10-26T02:14:29.820Z,2.58
2023-10-26T02:16:57.037Z,2.50
2023-10-26T02:19:24.018Z,2.50
2023-10-26T02:21:51.166Z,2.40
2023-10-26T02:24:18.339Z,2.20
2023-10-26T02:26:45.490Z,2.20
2023-10-26T02:29:12.810Z,3.07
2023-10-26T02:31:40.080Z,2.70
2023-10-26T02:34:07.031Z,2.53
2023-10-26T02:36:34.259Z,2.80
2023-10-26T02:39:01.420Z,2.50
2023-10-26T02:41:28.332Z,2.20
2023-10-26T02:43:55.532Z,2.53
2023-10-26T02:46:24.655Z,2.50
2023-10-26T02:48:51.624Z,2.50
2023-10-26T02:51:18.818Z,2.67
2023-10-26T02:53:46.076Z,2.70
2023-10-26T02:56:13.069Z,2.50
2023-10-26T02:58:40.268Z,2.42
2023-10-26T03:01:07.658Z,1.92
2023-10-26T03:03:34.718Z,2.33
2023-10-26T03:06:02.355Z,2.20
2023-10-26T03:08:29.619Z,2.17
2023-10-26T03:10:56.778Z,2.22
2023-10-26T03:13:23.862Z,2.30
2023-10-26T03:15:51.222Z,2.37
2023-10-26T03:18:18.446Z,2.40
2023-10-26T03:20:45.355Z,2.62
2023-10-26T03:23:12.927Z,2.20
2023-10-26T03:25:39.918Z,2.35
2023-10-26T03:28:06.879Z,2.17
2023-10-26T03:30:34.761Z,2.30
2023-10-26T03:33:02.184Z,2.15
2023-10-26T03:35:29.871Z,2.55
2023-10-26T03:37:57.181Z,2.22
2023-10-26T03:40:24.348Z,2.30
2023-10-26T03:42:51.621Z,2.20
2023-10-26T03:45:18.749Z,2.37
2023-10-26T03:47:45.775Z,2.30
2023-10-26T03:50:13.615Z,2.40
2023-10-26T03:52:40.543Z,2.42
2023-10-26T03:55:08.140Z,2.60
2023-10-26T03:57:35.129Z,2.45
2023-10-26T04:00:04.398Z,2.70
2023-10-26T04:02:31.737Z,2.20
2023-10-26T04:04:59.065Z,2.75
2023-10-26T04:07:26.306Z,3.03
2023-10-26T04:09:53.575Z,3.12
2023-10-26T04:12:20.772Z,3.12
2023-10-26T04:14:48.229Z,3.90
2023-10-26T04:17:16.871Z,3.35
2023-10-26T04:19:44.191Z,3.33
2023-10-26T04:22:11.085Z,2.90
2023-10-26T04:24:38.592Z,2.90
2023-10-26T04:27:05.975Z,2.60
2023-10-26T04:29:33.038Z,3.10
2023-10-26T04:32:00.132Z,2.90
2023-10-26T04:34:29.563Z,2.90
2023-10-26T04:36:57.021Z,3.20
2023-10-26T04:39:23.995Z,3.50
2023-10-26T04:41:51.547Z,3.08
2023-10-26T04:44:19.929Z,3.77
2023-10-26T04:46:47.108Z,4.43
2023-10-26T04:49:14.076Z,4.25
2023-10-26T04:51:41.288Z,4.22
2023-10-26T04:54:08.523Z,4.80
2023-10-26T04:56:35.635Z,4.33
2023-10-26T04:59:03.152Z,4.75
2023-10-26T05:01:30.408Z,4.90
2023-10-26T05:03:57.884Z,5.25
2023-10-26T05:06:25.204Z,5.00
2023-10-26T05:08:52.645Z,6.13
2023-10-26T05:11:20.668Z,5.53
2023-10-26T05:13:49.330Z,6.37
2023-10-26T05:16:16.398Z,5.78
2023-10-26T05:18:43.671Z,5.12
2023-10-26T05:21:10.933Z,5.00
2023-10-26T05:23:40.951Z,4.70
2023-10-26T05:26:08.249Z,4.35
2023-10-26T05:28:35.397Z,4.72
2023-10-26T05:31:02.362Z,5.00
2023-10-26T05:33:29.603Z,4.80
2023-10-26T05:35:57.746Z,5.97
2023-10-26T05:38:25.203Z,5.28
2023-10-26T05:40:58.453Z,4.70
2023-10-26T05:43:25.758Z,4.25
2023-10-26T05:45:53.891Z,4.70
2023-10-26T05:48:21.031Z,4.62
2023-10-26T05:50:48.066Z,3.92
2023-10-26T05:53:15.298Z,4.32
2023-10-26T05:55:42.415Z,4.05
2023-10-26T05:58:12.255Z,4.30
2023-10-26T06:00:39.901Z,4.15
2023-10-26T06:03:07.566Z,4.20
2023-10-26T06:05:35.034Z,4.43
2023-10-26T06:08:01.994Z,4.40
2023-10-26T06:10:29.020Z,4.17
2023-10-26T06:12:56.138Z,3.90
2023-10-26T06:15:24.145Z,4.28
2023-10-26T06:17:52.030Z,4.80
2023-10-26T06:20:19.305Z,5.10
2023-10-26T06:22:46.415Z,5.10
2023-10-26T06:25:13.676Z,4.95
2023-10-26T06:27:40.852Z,5.40
2023-10-26T06:30:08.700Z,5.50
2023-10-26T06:32:36.814Z,5.32
2023-10-26T06:35:05.355Z,5.97
2023-10-26T06:37:32.297Z,5.12
2023-10-26T06:39:59.275Z,5.53
2023-10-26T06:42:26.439Z,5.53
2023-10-26T06:44:53.693Z,6.43
2023-10-26T06:47:20.925Z,5.47
2023-10-26T06:49:48.505Z,5.40
2023-10-26T06:52:15.938Z,5.18
2023-10-26T06:54:43.676Z,6.12
2023-10-26T06:57:11.167Z,5.68
2023-10-26T06:59:38.219Z,5.57
2023-10-26T07:02:09.427Z,5.97
2023-10-26T07:04:39.516Z,5.12
2023-10-26T07:07:06.975Z,5.68
2023-10-26T07:09:33.936Z,5.45
2023-10-26T07:12:01.099Z,5.00
2023-10-26T07:14:28.389Z,5.72
2023-10-26T07:16:57.125Z,5.25
2023-10-26T07:19:24.291Z,5.50
2023-10-26T07:21:51.503Z,5.65
2023-10-26T07:24:18.766Z,7.43
2023-10-26T07:26:46.332Z,8.73
2023-10-26T07:29:13.627Z,7.53
2023-10-26T07:31:41.020Z,6.85
2023-10-26T07:34:08.376Z,6.18
2023-10-26T07:36:35.709Z,6.13
2023-10-26T07:39:44.382Z,5.65
2023-10-26T07:44:38.891Z,5.40
2023-10-26T07:47:12.864Z,5.68
2023-10-26T07:49:46.229Z,5.17
2023-10-26T07:52:13.418Z,5.53
2023-10-26T07:54:40.608Z,5.32
2023-10-26T07:57:07.981Z,4.65
2023-10-26T07:59:34.948Z,4.57
2023-10-26T08:02:02.813Z,4.10
2023-10-26T08:04:33.764Z,4.70
2023-10-26T08:07:01.842Z,4.22
2023-10-26T08:09:35.326Z,4.43
2023-10-26T08:12:02.637Z,5.20
2023-10-26T08:16:29.494Z,7.13
2023-10-26T08:17:18.814Z,5.87
2023-10-26T08:19:46.124Z,4.40
2023-10-26T08:22:13.883Z,3.70
2023-10-26T08:24:41.057Z,4.30
2023-10-26T08:27:08.537Z,3.97
2023-10-26T08:29:35.737Z,3.85
2023-10-26T08:32:04.961Z,3.90
2023-10-26T08:34:32.775Z,4.25
2023-10-26T08:37:13.096Z,4.82
2023-10-26T08:39:41.719Z,4.53
2023-10-26T08:42:10.009Z,4.10
2023-10-26T08:44:39.000Z,3.97
2023-10-26T08:47:07.168Z,4.62
2023-10-26T08:49:34.333Z,3.90
2023-10-26T08:52:01.610Z,4.37
2023-10-26T08:54:29.091Z,4.03
2023-10-26T08:56:56.544Z,4.20
2023-10-26T08:59:26.447Z,4.10
2023-10-26T09:01:54.143Z,3.92
2023-10-26T09:04:21.693Z,3.90
2023-10-26T09:06:50.367Z,4.00
2023-10-26T09:09:19.881Z,4.05
2023-10-26T09:11:49.354Z,4.37
2023-10-26T09:14:17.609Z,4.10
2023-10-26T09:16:46.736Z,4.27
2023-10-26T09:19:16.336Z,3.97
2023-10-26T09:21:57.700Z,4.68
2023-10-26T09:24:30.528Z,4.43
2023-10-26T09:27:00.620Z,4.85
2023-10-26T09:29:41.957Z,11.17
2023-10-26T09:32:10.851Z,12.63
2023-10-26T09:34:46.636Z,4.40
2023-10-26T09:37:13.900Z,3.55
2023-10-26T09:39:43.057Z,3.80
2023-10-26T09:42:13.517Z,4.10
2023-10-26T09:44:40.626Z,3.50
2023-10-26T09:47:08.319Z,3.30
2023-10-26T09:49:35.838Z,3.08
2023-10-26T09:52:03.504Z,3.22
2023-10-26T09:54:38.377Z,2.80
2023-10-26T09:57:14.467Z,3.37
2023-10-26T09:59:42.961Z,3.22
2023-10-26T10:02:17.568Z,3.05
2023-10-26T10:04:45.844Z,2.90
2023-10-26T10:07:41.977Z,3.30
2023-10-26T10:10:12.405Z,3.45
2023-10-26T10:12:40.774Z,3.33
2023-10-26T10:15:36.122Z,2.35
2023-10-26T10:17:59.864Z,2.47
2023-10-26T10:20:29.142Z,2.20
2023-10-26T10:23:00.037Z,2.47
2023-10-26T10:25:50.408Z,2.33
2023-10-26T10:28:19.777Z,2.00
2023-10-26T10:30:59.310Z,2.28
2023-10-26T10:33:28.981Z,2.60
2023-10-26T10:36:04.265Z,2.15
2023-10-26T10:38:32.621Z,1.73
2023-10-26T10:41:11.623Z,1.70
2023-10-26T10:43:42.024Z,1.60
2023-10-26T10:46:12.029Z,1.60
2023-10-26T10:48:57.067Z,1.73
2023-10-26T10:51:38.097Z,2.10
2023-10-26T10:54:20.293Z,1.83
2023-10-26T10:56:54.416Z,1.30
2023-10-26T10:59:31.713Z,1.53
2023-10-26T11:02:08.621Z,0.90
2023-10-26T11:04:41.919Z,2.20
2023-10-26T11:07:18.432Z,1.40
2023-10-26T11:09:47.534Z,1.25
2023-10-26T11:12:14.677Z,0.90
2023-10-26T11:14:51.092Z,1.55
2023-10-26T11:17:19.325Z,0.90
2023-10-26T11:19:46.742Z,0.80
2023-10-26T11:22:17.695Z,1.10
2023-10-26T11:24:46.499Z,1.23
2023-10-26T11:27:15.712Z,0.68
2023-10-26T11:29:44.602Z,0.82
2023-10-26T11:32:22.699Z,1.23
2023-10-26T11:35:07.496Z,0.90
2023-10-26T11:37:41.792Z,0.97
2023-10-26T11:40:11.533Z,1.00
2023-10-26T11:43:02.414Z,1.00
2023-10-26T11:45:30.951Z,0.65
2023-10-26T11:48:00.482Z,0.80
2023-10-26T11:50:29.727Z,0.90
2023-10-26T11:52:58.899Z,0.70
2023-10-26T11:55:27.632Z,0.90
2023-10-26T11:57:58.401Z,0.80
2023-10-26T12:00:27.595Z,0.90
2023-10-26T12:02:59.331Z,0.77
2023-10-26T12:05:27.618Z,0.68
2023-10-26T12:07:55.957Z,0.90
2023-10-26T12:10:24.848Z,0.73
2023-10-26T12:12:54.288Z,1.00
2023-10-26T12:15:22.637Z,0.60
2023-10-26T12:17:50.153Z,0.93
2023-10-26T12:20:18.092Z,0.70
2023-10-26T12:22:46.026Z,0.90
2023-10-26T12:25:13.719Z,1.00
2023-10-26T12:28:20.132Z,0.90
2023-10-26T12:30:28.352Z,0.90
2023-10-26T12:32:55.625Z,0.95
2023-10-26T12:35:24.706Z,1.10
2023-10-26T12:37:52.666Z,0.60
2023-10-26T12:40:21.713Z,0.70
2023-10-26T12:42:49.206Z,1.05
2023-10-26T12:45:18.952Z,1.00
2023-10-26T12:47:46.496Z,0.73
2023-10-26T12:50:13.711Z,0.98
2023-10-26T12:52:41.028Z,0.60
2023-10-26T12:55:08.595Z,0.70
2023-10-26T12:57:35.787Z,0.62
2023-10-26T13:00:04.353Z,0.50
2023-10-26T13:02:31.726Z,0.50
2023-10-26T13:04:58.666Z,0.60
2023-10-26T13:07:28.317Z,0.60
2023-10-26T13:09:55.246Z,0.60
2023-10-26T13:12:22.246Z,0.50
2023-10-26T13:14:51.204Z,0.60
2023-10-26T13:17:27.493Z,0.50
2023-10-26T13:19:54.525Z,0.52
2023-10-26T13:22:21.433Z,0.65
2023-10-26T13:24:48.640Z,0.82
2023-10-26T13:27:15.737Z,0.70
2023-10-26T13:29:42.879Z,0.67
2023-10-26T13:32:10.256Z,0.68
2023-10-26T13:34:37.539Z,0.50
2023-10-26T13:37:04.567Z,0.60
2023-10-26T13:39:31.565Z,0.60
2023-10-26T13:41:58.649Z,0.93
2023-10-26T13:44:25.625Z,0.70
2023-10-26T13:46:52.803Z,0.90
2023-10-26T13:49:20.138Z,0.70
2023-10-26T13:51:47.371Z,0.70
2023-10-26T13:54:14.349Z,0.90
2023-10-26T13:56:41.448Z,1.27
2023-10-26T13:59:08.637Z,1.30
2023-10-26T14:01:35.869Z,2.97
2023-10-26T14:04:02.894Z,1.20
2023-10-26T14:06:30.658Z,0.70
2023-10-26T14:08:59.530Z,1.00
2023-10-26T14:11:28.080Z,0.80
2023-10-26T14:13:56.215Z,0.90
2023-10-26T14:16:24.445Z,1.55
2023-10-26T14:18:51.504Z,0.80
2023-10-26T14:21:18.451Z,1.00
2023-10-26T14:23:45.370Z,1.00
2023-10-26T14:26:13.170Z,1.20
2023-10-26T14:28:40.714Z,1.00
2023-10-26T14:31:07.725Z,0.93
2023-10-26T14:33:34.812Z,0.98
2023-10-26T14:36:02.146Z,1.00
2023-10-26T14:38:29.399Z,1.37
2023-10-26T14:40:58.917Z,1.65
2023-10-26T14:43:26.541Z,1.43
2023-10-26T14:45:53.469Z,1.42
2023-10-26T14:48:21.214Z,1.92
2023-10-26T14:50:48.522Z,1.98
2023-10-26T14:53:16.038Z,1.80
2023-10-26T14:55:43.061Z,2.60
2023-10-26T14:58:10.673Z,2.28
2023-10-26T15:00:39.732Z,2.03
2023-10-26T15:03:07.324Z,2.20
2023-10-26T15:05:35.693Z,3.40
2023-10-26T15:08:03.678Z,3.20
2023-10-26T15:10:36.561Z,3.60
2023-10-26T15:13:05.755Z,3.80
2023-10-26T15:15:33.173Z,3.00
2023-10-26T15:18:00.483Z,3.95
2023-10-26T15:20:27.645Z,7.13
2023-10-26T15:22:54.736Z,5.37
2023-10-26T15:25:22.096Z,4.68
2023-10-26T15:27:49.395Z,5.43
2023-10-26T15:30:19.005Z,5.20
2023-10-26T15:32:48.548Z,5.90
2023-10-26T15:35:15.957Z,4.70
2023-10-26T15:37:42.913Z,4.10
2023-10-26T15:40:12.990Z,4.40
2023-10-26T15:42:40.008Z,5.60
2023-10-26T15:45:07.587Z,4.40
2023-10-26T15:47:34.812Z,4.62
2023-10-26T15:50:01.849Z,4.45
2023-10-26T15:52:36.390Z,5.03
2023-10-26T15:55:03.956Z,6.65
2023-10-26T15:57:33.887Z,8.17
2023-10-26T16:00:01.860Z,7.80
2023-10-26T16:02:28.881Z,7.07
2023-10-26T16:04:56.298Z,7.07
2023-10-26T16:07:23.557Z,7.15
2023-10-26T16:09:50.719Z,6.87
2023-10-26T16:12:18.743Z,6.97
2023-10-26T16:14:46.190Z,5.82
2023-10-26T16:17:13.392Z,6.70
2023-10-26T16:19:40.595Z,6.10
2023-10-26T16:22:09.403Z,7.43
2023-10-26T16:24:38.152Z,8.48
2023-10-26T16:27:05.522Z,8.27
2023-10-26T16:29:32.484Z,7.93
2023-10-26T16:31:59.559Z,7.15
2023-10-26T16:34:26.555Z,7.83
2023-10-26T16:36:54.152Z,7.15
2023-10-26T16:39:21.640Z,7.30
2023-10-26T16:41:49.005Z,7.15
2023-10-26T16:44:17.208Z,7.32
2023-10-26T16:46:44.697Z,7.20
2023-10-26T16:49:12.014Z,7.03
2023-10-26T16:51:39.590Z,7.60
2023-10-26T16:54:07.172Z,9.10
2023-10-26T16:56:34.674Z,9.18
2023-10-26T16:59:01.973Z,9.67
2023-10-26T17:01:30.120Z,9.23
2023-10-26T17:03:59.504Z,10.82
2023-10-26T17:06:28.822Z,15.95
2023-10-26T17:08:56.014Z,25.60
2023-10-26T17:11:23.832Z,20.23
2023-10-26T17:13:51.450Z,17.00
2023-10-26T17:16:19.671Z,11.52
2023-10-26T17:18:47.809Z,11.18
2023-10-26T17:21:15.596Z,9.57
2023-10-26T17:23:43.192Z,8.20
2023-10-26T17:26:14.299Z,7.25
2023-10-26T17:28:42.268Z,6.82
2023-10-26T17:31:10.000Z,5.82
2023-10-26T17:33:38.801Z,6.78
2023-10-26T17:36:07.128Z,4.83
2023-10-26T17:38:35.121Z,5.30
2023-10-26T17:41:17.440Z,4.68
2023-10-26T17:43:45.841Z,4.47
2023-10-26T17:46:17.313Z,4.70
2023-10-26T17:48:45.872Z,5.70
2023-10-26T17:51:13.677Z,6.43
2023-10-26T17:53:43.186Z,6.55
2023-10-26T17:56:13.786Z,6.00
2023-10-26T17:58:42.804Z,5.45
2023-10-26T18:01:12.583Z,6.00
2023-10-26T18:03:43.163Z,5.90
2023-10-26T18:06:10.772Z,6.87
2023-10-26T18:08:41.537Z,8.52
2023-10-26T18:11:10.122Z,9.20
2023-10-26T18:13:39.395Z,8.17
2023-10-26T18:16:09.568Z,7.87
2023-10-26T18:18:41.362Z,7.90
2023-10-26T18:21:10.158Z,7.20
2023-10-26T18:23:41.741Z,29.27
2023-10-26T18:26:11.827Z,21.63
2023-10-26T18:28:42.151Z,23.75
2023-10-26T18:31:15.363Z,25.83
2023-10-26T18:33:50.808Z,24.73
2023-10-26T18:36:21.703Z,30.08
2023-10-26T18:38:50.198Z,33.97
2023-10-26T18:41:23.602Z,39.83
2023-10-26T18:43:54.965Z,46.50
2023-10-26T18:46:23.674Z,29.27
2023-10-26T18:48:51.664Z,26.08
2023-10-26T18:51:20.103Z,19.67
2023-10-26T18:53:47.343Z,9.82
2023-10-26T18:56:26.282Z,15.07
2023-10-26T18:58:54.387Z,15.90
2023-10-26T19:01:27.334Z,21.98
2023-10-26T19:06:27.257Z,19.90
2023-10-26T19:08:55.095Z,34.10
2023-10-26T19:11:22.790Z,21.55
2023-10-26T19:13:51.363Z,33.92
2023-10-26T19:16:20.007Z,64.20
2023-10-26T19:18:47.716Z,46.67
2023-10-26T19:21:15.963Z,24.12
2023-10-26T19:23:46.488Z,29.73
2023-10-26T19:26:16.118Z,14.73
2023-10-26T19:28:44.492Z,15.43
2023-10-26T19:31:14.250Z,9.27
2023-10-26T19:33:43.846Z,9.98
2023-10-26T19:36:12.588Z,7.93
2023-10-26T19:38:41.359Z,7.50
2023-10-26T19:41:16.085Z,9.47
2023-10-26T19:43:44.283Z,7.32
2023-10-26T19:46:13.266Z,7.80
2023-10-26T19:48:44.288Z,6.80
2023-10-26T19:51:15.762Z,6.90
2023-10-26T19:53:46.658Z,6.73
2023-10-26T19:56:16.527Z,6.65
2023-10-26T19:58:46.003Z,7.97
2023-10-26T20:01:16.917Z,7.80
2023-10-26T20:03:44.754Z,8.57
2023-10-26T20:06:12.859Z,9.00
2023-10-26T20:08:41.040Z,9.38
2023-10-26T20:11:12.320Z,9.15
2023-10-26T20:13:42.200Z,7.93
2023-10-26T20:16:10.022Z,6.97
2023-10-26T20:18:41.899Z,6.90
2023-10-26T20:21:10.977Z,5.87
2023-10-26T20:23:38.718Z,6.30
2023-10-26T20:26:06.317Z,5.75
2023-10-26T20:28:33.956Z,5.85
2023-10-26T20:31:01.649Z,7.27
2023-10-26T20:33:28.987Z,7.35
2023-10-26T20:35:56.786Z,6.50
2023-10-26T20:38:24.550Z,8.07
2023-10-26T20:40:52.112Z,7.97
2023-10-26T20:43:19.949Z,8.67
2023-10-26T20:45:47.704Z,7.72
2023-10-26T20:48:15.374Z,7.12
2023-10-26T20:50:42.691Z,6.68
2023-10-26T20:53:09.686Z,5.68
2023-10-26T20:55:36.876Z,6.20
2023-10-26T20:58:04.428Z,5.80
2023-10-26T21:00:31.686Z,6.07
2023-10-26T21:02:58.916Z,6.22
2023-10-26T21:05:26.102Z,6.20
2023-10-26T21:07:53.587Z,6.93
2023-10-26T21:10:20.612Z,6.32
2023-10-26T21:12:47.688Z,6.20
2023-10-26T21:15:14.872Z,5.90
2023-10-26T21:17:42.283Z,6.18
2023-10-26T21:20:10.040Z,6.20
2023-10-26T21:22:37.536Z,5.57
2023-10-26T21:25:05.937Z,5.80
2023-10-26T21:27:33.221Z,6.32
2023-10-26T21:30:00.426Z,6.05
2023-10-26T21:32:27.877Z,6.27
2023-10-26T21:34:55.208Z,6.55
2023-10-26T21:37:22.167Z,6.47
2023-10-26T21:39:49.326Z,6.22
2023-10-26T21:42:17.357Z,5.95
2023-10-26T21:44:44.247Z,6.37
2023-10-26T21:47:11.235Z,6.53
2023-10-26T21:49:38.390Z,6.80
2023-10-26T21:52:05.984Z,6.90
2023-10-26T21:54:33.146Z,9.20
2023-10-26T21:57:00.470Z,9.50
2023-10-26T21:59:27.427Z,8.27
2023-10-26T22:01:54.658Z,9.38
2023-10-26T22:04:23.176Z,8.55
2023-10-26T22:06:51.870Z,8.50
2023-10-26T22:09:22.153Z,8.47
2023-10-26T22:11:49.316Z,8.40
2023-10-26T22:14:16.543Z,6.90
2023-10-26T22:16:44.220Z,7.60
2023-10-26T22:19:11.628Z,7.32
2023-10-26T22:21:39.025Z,6.80
2023-10-26T22:24:07.868Z,7.12
2023-10-26T22:26:34.771Z,6.80
2023-10-26T22:29:01.828Z,7.25
2023-10-26T22:31:29.529Z,6.35
2023-10-26T22:33:56.765Z,7.13
2023-10-26T22:36:23.923Z,6.93
2023-10-26T22:38:51.140Z,6.70
2023-10-26T22:41:18.136Z,6.22
2023-10-26T22:43:45.134Z,6.82
2023-10-26T22:46:12.145Z,6.23
2023-10-26T22:48:39.614Z,6.65
2023-10-26T22:51:06.708Z,6.35
2023-10-26T22:53:34.094Z,7.25
2023-10-26T22:56:02.971Z,6.50
2023-10-26T22:58:30.178Z,7.33
2023-10-26T23:00:57.403Z,6.55
2023-10-26T23:03:24.693Z,6.30
2023-10-26T23:05:57.834Z,6.47
2023-10-26T23:08:24.842Z,6.05
2023-10-26T23:10:51.824Z,6.03
2023-10-26T23:13:19.050Z,6.30
2023-10-26T23:15:46.602Z,6.07
2023-10-26T23:18:13.925Z,6.03
2023-10-26T23:20:41.087Z,6.40
2023-10-26T23:23:08.643Z,6.30
2023-10-26T23:25:45.469Z,7.32
2023-10-26T23:28:13.108Z,10.60
2023-10-26T23:30:40.509Z,9.43
2023-10-26T23:33:08.532Z,9.50
2023-10-26T23:35:39.349Z,8.57
2023-10-26T23:38:06.280Z,8.32
2023-10-26T23:40:33.349Z,8.10
2023-10-26T23:43:01.293Z,8.00
2023-10-26T23:45:29.316Z,8.02
2023-10-26T23:47:56.619Z,8.37
2023-10-26T23:50:23.902Z,8.52
2023-10-26T23:52:51.265Z,8.48
2023-10-26T23:55:18.220Z,9.40
2023-10-26T23:57:45.735Z,8.82
